Forside
METAR-TAF:

METAR-TAF

Lufthavne :

Millington, Tennessee, USA

Breddekreds: 35-21-24N, længdekreds: 089-52-13W, højde: 98 m

Aktuelle vejr

Denne rapport blev lavet for 29 minutter siden, kl. 06:55 UTC
Vind stille
Temperatur 2°C
Fugtighed 100%
Tryk 1024 hPa
Sigt: 16.1 km
Nogle få skyer i en højde af 1700 ft

METAR: KNQA 220655Z AUTO 00000KT 10SM FEW017 02/02 A3025 RMK A01

Tid: 02:24 (07:24 UTC)


TAF: fraværende

Vejrobservationer og prognoser fra mere end 4000 lufthavne (METAR og TAF).

De gule og røde prikker repræsenterer de meteorologiske stationer.

Flyt musen over at se navnet på stationen.

Så klik over at se vejr observationer og prognoser.

At skifte det kort: Klik på de grønne knapper med et sort kors for at zoome ind; på den grønne knap med en bindestreg for at zoome ud; eller på de grønne pile for tilstødende kort.


METAR-TAF: